Terminal Aerodrome Forecast
Issued by NWS Des Moines, IA

Home | Current Version | Previous Version | Text Only | Print | Product List | Glossary On
Versions: 1 2 3 4 5 6 7 8 9 10 11 12 13 14 15 16 17 18 19 20 21 22 23 24 25 26
000
FTUS43 KDMX 160613 AAA
TAFALO
TAF AMD
KALO 160613Z 1606/1706 VRB04KT P6SM BKN008
     FM160800 06004KT 4SM BR OVC006
     FM161300 03006KT P6SM BKN015
     FM162200 36005KT P6SM BKN030=

USA.gov is the U.S. government's official web portal to all federal, state and local government web resources and services.